sensor_id;sensor_type;location;lat;lon;timestamp;pressure;altitude;pressure_sealevel;temperature;humidity
8280;BME280;8335;42.646;23.380;2022-10-30T00:00:22;95163.84;;;10.36;81.34
8280;BME280;8335;42.646;23.380;2022-10-30T00:02:49;95175.03;;;10.32;81.81
8280;BME280;8335;42.646;23.380;2022-10-30T00:05:16;95171.72;;;10.30;82.13
8280;BME280;8335;42.646;23.380;2022-10-30T00:07:44;95174.91;;;10.35;82.06
8280;BME280;8335;42.646;23.380;2022-10-30T00:10:11;95170.19;;;10.26;81.79
8280;BME280;8335;42.646;23.380;2022-10-30T00:12:39;95172.78;;;10.25;82.08
8280;BME280;8335;42.646;23.380;2022-10-30T00:15:07;95164.53;;;10.18;82.17
8280;BME280;8335;42.646;23.380;2022-10-30T00:17:34;95166.38;;;10.14;82.19
8280;BME280;8335;42.646;23.380;2022-10-30T00:20:00;95168.66;;;10.20;82.30
8280;BME280;8335;42.646;23.380;2022-10-30T00:22:27;95175.41;;;10.23;82.28
8280;BME280;8335;42.646;23.380;2022-10-30T00:24:54;95171.13;;;10.24;82.26
8280;BME280;8335;42.646;23.380;2022-10-30T00:27:21;95172.94;;;10.20;82.45
8280;BME280;8335;42.646;23.380;2022-10-30T00:29:49;95164.78;;;10.12;82.48
8280;BME280;8335;42.646;23.380;2022-10-30T00:32:15;95162.16;;;10.13;82.89
8280;BME280;8335;42.646;23.380;2022-10-30T00:34:42;95159.81;;;10.09;82.66
8280;BME280;8335;42.646;23.380;2022-10-30T00:37:09;95165.78;;;10.08;82.59
8280;BME280;8335;42.646;23.380;2022-10-30T00:39:36;95167.97;;;10.17;82.67
8280;BME280;8335;42.646;23.380;2022-10-30T00:42:03;95170.31;;;10.23;81.63
8280;BME280;8335;42.646;23.380;2022-10-30T00:44:39;95162.59;;;10.25;81.27
8280;BME280;8335;42.646;23.380;2022-10-30T00:47:12;95141.22;;;10.07;81.54
8280;BME280;8335;42.646;23.380;2022-10-30T00:49:50;95154.41;;;10.16;81.64
8280;BME280;8335;42.646;23.380;2022-10-30T00:52:20;95159.63;;;10.13;81.80
8280;BME280;8335;42.646;23.380;2022-10-30T00:54:48;95159.91;;;10.06;82.02
8280;BME280;8335;42.646;23.380;2022-10-30T00:57:16;95165.97;;;10.03;82.44
8280;BME280;8335;42.646;23.380;2022-10-30T00:59:44;95142.00;;;9.87;82.80
8280;BME280;8335;42.646;23.380;2022-10-30T01:02:13;95157.22;;;9.88;83.07
8280;BME280;8335;42.646;23.380;2022-10-30T01:04:42;95134.91;;;9.73;83.14
8280;BME280;8335;42.646;23.380;2022-10-30T01:07:13;95147.03;;;9.67;83.46
8280;BME280;8335;42.646;23.380;2022-10-30T01:09:41;95148.22;;;9.58;83.95
8280;BME280;8335;42.646;23.380;2022-10-30T01:12:08;95147.38;;;9.57;84.13
8280;BME280;8335;42.646;23.380;2022-10-30T01:14:37;95142.22;;;9.59;84.36
8280;BME280;8335;42.646;23.380;2022-10-30T01:17:22;95134.00;;;9.52;84.83
8280;BME280;8335;42.646;23.380;2022-10-30T01:20:01;95141.03;;;9.46;84.66
8280;BME280;8335;42.646;23.380;2022-10-30T01:22:43;95139.09;;;9.29;84.92
8280;BME280;8335;42.646;23.380;2022-10-30T01:25:26;95115.66;;;9.21;85.19
8280;BME280;8335;42.646;23.380;2022-10-30T01:28:04;95117.09;;;9.04;85.78
8280;BME280;8335;42.646;23.380;2022-10-30T01:30:47;95124.13;;;8.98;86.05
8280;BME280;8335;42.646;23.380;2022-10-30T01:33:31;95115.13;;;8.89;86.54
8280;BME280;8335;42.646;23.380;2022-10-30T01:36:07;95120.31;;;8.86;87.02
8280;BME280;8335;42.646;23.380;2022-10-30T01:38:42;95122.88;;;8.85;86.74
8280;BME280;8335;42.646;23.380;2022-10-30T01:41:10;95121.13;;;8.87;86.88
8280;BME280;8335;42.646;23.380;2022-10-30T01:43:37;95122.84;;;8.86;87.05
8280;BME280;8335;42.646;23.380;2022-10-30T01:46:29;95112.69;;;8.86;87.15
8280;BME280;8335;42.646;23.380;2022-10-30T01:49:10;95113.56;;;8.85;87.02
8280;BME280;8335;42.646;23.380;2022-10-30T01:51:50;95114.44;;;8.84;86.62
8280;BME280;8335;42.646;23.380;2022-10-30T01:54:27;95114.72;;;8.76;87.34
8280;BME280;8335;42.646;23.380;2022-10-30T01:57:02;95096.50;;;8.65;87.40
8280;BME280;8335;42.646;23.380;2022-10-30T01:59:34;95106.25;;;8.76;87.14
8280;BME280;8335;42.646;23.380;2022-10-30T02:02:03;95088.50;;;8.76;87.47
8280;BME280;8335;42.646;23.380;2022-10-30T02:04:31;95110.16;;;8.86;87.01
8280;BME280;8335;42.646;23.380;2022-10-30T02:06:58;95102.75;;;8.80;87.51
8280;BME280;8335;42.646;23.380;2022-10-30T02:09:25;95102.84;;;8.77;88.00
8280;BME280;8335;42.646;23.380;2022-10-30T02:11:52;95106.25;;;8.76;87.93
8280;BME280;8335;42.646;23.380;2022-10-30T02:14:23;95103.72;;;8.76;87.79
8280;BME280;8335;42.646;23.380;2022-10-30T02:16:52;95103.84;;;8.73;87.62
8280;BME280;8335;42.646;23.380;2022-10-30T02:19:20;95103.03;;;8.72;87.83
8280;BME280;8335;42.646;23.380;2022-10-30T02:21:48;95109.06;;;8.68;88.48
8280;BME280;8335;42.646;23.380;2022-10-30T02:24:15;95099.25;;;8.59;88.06
8280;BME280;8335;42.646;23.380;2022-10-30T02:26:42;95097.53;;;8.60;88.74
8280;BME280;8335;42.646;23.380;2022-10-30T02:29:08;95098.41;;;8.59;88.74
8280;BME280;8335;42.646;23.380;2022-10-30T02:31:35;95093.44;;;8.55;88.87
8280;BME280;8335;42.646;23.380;2022-10-30T02:34:03;95014.09;;;8.00;89.23
8280;BME280;8335;42.646;23.380;2022-10-30T02:36:29;95107.81;;;8.55;89.27
8280;BME280;8335;42.646;23.380;2022-10-30T02:38:58;95102.13;;;8.48;89.15
8280;BME280;8335;42.646;23.380;2022-10-30T02:41:25;95104.59;;;8.51;90.63
8280;BME280;8335;42.646;23.380;2022-10-30T02:43:51;95095.81;;;8.60;90.13
8280;BME280;8335;42.646;23.380;2022-10-30T02:46:18;95094.16;;;8.59;89.75
8280;BME280;8335;42.646;23.380;2022-10-30T02:48:45;95101.50;;;8.67;89.12
8280;BME280;8335;42.646;23.380;2022-10-30T02:51:12;95099.75;;;8.69;88.76
8280;BME280;8335;42.646;23.380;2022-10-30T02:53:39;95103.94;;;8.70;89.16
8280;BME280;8335;42.646;23.380;2022-10-30T02:56:08;95081.69;;;8.53;89.77
8280;BME280;8335;42.646;23.380;2022-10-30T02:58:36;95102.97;;;8.74;89.36
8280;BME280;8335;42.646;23.380;2022-10-30T03:01:06;95109.81;;;8.72;89.18
8280;BME280;8335;42.646;23.380;2022-10-30T03:03:34;95102.50;;;8.63;89.70
8280;BME280;8335;42.646;23.380;2022-10-30T03:06:01;95107.75;;;8.58;89.47
8280;BME280;8335;42.646;23.380;2022-10-30T03:08:28;95113.66;;;8.59;89.91
8280;BME280;8335;42.646;23.380;2022-10-30T03:10:59;95118.97;;;8.51;90.12
8280;BME280;8335;42.646;23.380;2022-10-30T03:13:28;95115.50;;;8.53;90.43
8280;BME280;8335;42.646;23.380;2022-10-30T03:15:59;95117.31;;;8.50;90.14
8280;BME280;8335;42.646;23.380;2022-10-30T03:18:27;95131.81;;;8.46;89.65
8280;BME280;8335;42.646;23.380;2022-10-30T03:20:57;95126.16;;;8.38;90.32
8280;BME280;8335;42.646;23.380;2022-10-30T03:23:25;95122.09;;;8.33;90.22
8280;BME280;8335;42.646;23.380;2022-10-30T03:25:52;95127.94;;;8.35;90.72
8280;BME280;8335;42.646;23.380;2022-10-30T03:28:23;95128.78;;;8.35;90.57
8280;BME280;8335;42.646;23.380;2022-10-30T03:30:57;95132.13;;;8.37;91.15
8280;BME280;8335;42.646;23.380;2022-10-30T03:33:23;95119.25;;;8.42;90.08
8280;BME280;8335;42.646;23.380;2022-10-30T03:35:50;95117.53;;;8.44;90.32
8280;BME280;8335;42.646;23.380;2022-10-30T03:38:17;95114.16;;;8.43;90.08
8280;BME280;8335;42.646;23.380;2022-10-30T03:40:44;95112.47;;;8.42;90.65
8280;BME280;8335;42.646;23.380;2022-10-30T03:43:11;95110.19;;;8.36;91.64
8280;BME280;8335;42.646;23.380;2022-10-30T03:45:37;95111.25;;;8.27;91.84
8280;BME280;8335;42.646;23.380;2022-10-30T03:48:05;95118.84;;;8.29;91.63
8280;BME280;8335;42.646;23.380;2022-10-30T03:50:32;95113.75;;;8.29;92.31
8280;BME280;8335;42.646;23.380;2022-10-30T03:52:59;95113.69;;;8.31;92.34
8280;BME280;8335;42.646;23.380;2022-10-30T03:55:26;95102.88;;;8.25;92.81
8280;BME280;8335;42.646;23.380;2022-10-30T03:57:52;95105.53;;;8.22;91.90
8280;BME280;8335;42.646;23.380;2022-10-30T04:00:19;95115.88;;;8.16;92.73
8280;BME280;8335;42.646;23.380;2022-10-30T04:02:47;95099.81;;;8.16;92.04
8280;BME280;8335;42.646;23.380;2022-10-30T04:05:17;95109.06;;;8.17;91.64
8280;BME280;8335;42.646;23.380;2022-10-30T04:07:44;95106.63;;;8.14;92.15
8280;BME280;8335;42.646;23.380;2022-10-30T04:10:11;95100.66;;;8.16;92.91
8280;BME280;8335;42.646;23.380;2022-10-30T04:12:38;95096.28;;;8.20;93.11
8280;BME280;8335;42.646;23.380;2022-10-30T04:15:07;95098.09;;;8.16;92.95
8280;BME280;8335;42.646;23.380;2022-10-30T04:17:34;95095.50;;;8.18;92.87
8280;BME280;8335;42.646;23.380;2022-10-30T04:20:00;95097.84;;;8.24;93.14
8280;BME280;8335;42.646;23.380;2022-10-30T04:22:29;95096.22;;;8.21;93.53
8280;BME280;8335;42.646;23.380;2022-10-30T04:24:55;95099.66;;;8.20;93.85
8280;BME280;8335;42.646;23.380;2022-10-30T04:27:22;95094.63;;;8.19;93.85
8280;BME280;8335;42.646;23.380;2022-10-30T04:29:49;95091.31;;;8.17;94.33
8280;BME280;8335;42.646;23.380;2022-10-30T04:32:17;95101.56;;;8.14;94.47
8280;BME280;8335;42.646;23.380;2022-10-30T04:34:43;95095.72;;;8.12;93.90
8280;BME280;8335;42.646;23.380;2022-10-30T04:37:10;95099.13;;;8.11;93.87
8280;BME280;8335;42.646;23.380;2022-10-30T04:39:38;95105.41;;;7.99;94.07
8280;BME280;8335;42.646;23.380;2022-10-30T04:42:05;95103.03;;;7.94;94.75
8280;BME280;8335;42.646;23.380;2022-10-30T04:44:32;95103.81;;;7.96;95.01
8280;BME280;8335;42.646;23.380;2022-10-30T04:46:58;95110.59;;;7.96;94.91
8280;BME280;8335;42.646;23.380;2022-10-30T04:49:25;95101.28;;;7.96;95.72
8280;BME280;8335;42.646;23.380;2022-10-30T04:51:52;95107.22;;;7.95;95.60
8280;BME280;8335;42.646;23.380;2022-10-30T04:54:19;95108.88;;;7.96;95.32
8280;BME280;8335;42.646;23.380;2022-10-30T04:56:47;95112.19;;;7.98;94.89
8280;BME280;8335;42.646;23.380;2022-10-30T04:59:14;95116.44;;;7.98;94.57
8280;BME280;8335;42.646;23.380;2022-10-30T05:01:41;95108.88;;;7.96;94.65
8280;BME280;8335;42.646;23.380;2022-10-30T05:04:08;95114.78;;;7.97;94.61
8280;BME280;8335;42.646;23.380;2022-10-30T05:06:34;95126.50;;;8.01;94.21
8280;BME280;8335;42.646;23.380;2022-10-30T05:09:01;95119.66;;;8.03;93.82
8280;BME280;8335;42.646;23.380;2022-10-30T05:11:28;95128.53;;;7.90;94.22
8280;BME280;8335;42.646;23.380;2022-10-30T05:13:56;95121.03;;;7.87;94.28
8280;BME280;8335;42.646;23.380;2022-10-30T05:16:23;95120.38;;;7.80;94.16
8280;BME280;8335;42.646;23.380;2022-10-30T05:18:50;95127.88;;;7.83;94.58
8280;BME280;8335;42.646;23.380;2022-10-30T05:21:16;95127.28;;;8.03;93.97
8280;BME280;8335;42.646;23.380;2022-10-30T05:23:43;95133.94;;;8.32;93.10
8280;BME280;8335;42.646;23.380;2022-10-30T05:26:10;95127.19;;;8.82;90.53
8280;BME280;8335;42.646;23.380;2022-10-30T05:28:37;95130.13;;;9.42;87.23
8280;BME280;8335;42.646;23.380;2022-10-30T05:31:05;95131.34;;;9.99;84.09
8280;BME280;8335;42.646;23.380;2022-10-30T05:33:32;95138.75;;;10.47;81.33
8280;BME280;8335;42.646;23.380;2022-10-30T05:35:59;95142.31;;;11.05;78.60
8280;BME280;8335;42.646;23.380;2022-10-30T05:38:25;95144.50;;;11.51;75.12
8280;BME280;8335;42.646;23.380;2022-10-30T05:40:52;95141.44;;;12.00;73.37
8280;BME280;8335;42.646;23.380;2022-10-30T05:43:19;95142.94;;;12.40;70.82
8280;BME280;8335;42.646;23.380;2022-10-30T05:45:47;95142.50;;;13.00;68.83
8280;BME280;8335;42.646;23.380;2022-10-30T05:48:15;95141.25;;;13.41;66.68
8280;BME280;8335;42.646;23.380;2022-10-30T05:50:42;95143.72;;;14.06;63.84
8280;BME280;8335;42.646;23.380;2022-10-30T05:53:09;95142.09;;;14.67;61.11
8280;BME280;8335;42.646;23.380;2022-10-30T05:55:36;95142.31;;;15.21;59.21
8280;BME280;8335;42.646;23.380;2022-10-30T05:58:04;95138.41;;;15.72;57.16
8280;BME280;8335;42.646;23.380;2022-10-30T06:00:32;95133.66;;;16.20;54.62
8280;BME280;8335;42.646;23.380;2022-10-30T06:02:59;95141.41;;;16.60;52.98
8280;BME280;8335;42.646;23.380;2022-10-30T06:05:28;95119.34;;;16.83;51.95
8280;BME280;8335;42.646;23.380;2022-10-30T06:07:55;95143.03;;;17.00;51.57
8280;BME280;8335;42.646;23.380;2022-10-30T06:10:22;95132.13;;;17.10;50.53
8280;BME280;8335;42.646;23.380;2022-10-30T06:12:53;95141.03;;;17.55;49.15
8280;BME280;8335;42.646;23.380;2022-10-30T06:15:21;95144.09;;;18.22;47.97
8280;BME280;8335;42.646;23.380;2022-10-30T06:17:48;95150.13;;;18.93;46.45
8280;BME280;8335;42.646;23.380;2022-10-30T06:20:15;95150.66;;;19.43;44.48
8280;BME280;8335;42.646;23.380;2022-10-30T06:22:53;95149.22;;;20.06;43.51
8280;BME280;8335;42.646;23.380;2022-10-30T06:25:20;95146.81;;;20.48;41.70
8280;BME280;8335;42.646;23.380;2022-10-30T06:27:47;95150.44;;;20.98;41.09
8280;BME280;8335;42.646;23.380;2022-10-30T06:30:14;95148.53;;;21.00;40.69
8280;BME280;8335;42.646;23.380;2022-10-30T06:32:41;95152.53;;;21.46;39.55
8280;BME280;8335;42.646;23.380;2022-10-30T06:35:08;95150.44;;;22.01;38.67
8280;BME280;8335;42.646;23.380;2022-10-30T06:37:35;95159.78;;;22.42;37.33
8280;BME280;8335;42.646;23.380;2022-10-30T06:40:06;95158.47;;;22.67;37.01
8280;BME280;8335;42.646;23.380;2022-10-30T06:42:40;95154.50;;;22.53;36.61
8280;BME280;8335;42.646;23.380;2022-10-30T06:45:08;95158.03;;;22.62;36.93
8280;BME280;8335;42.646;23.380;2022-10-30T06:47:35;95151.22;;;22.80;36.62
8280;BME280;8335;42.646;23.380;2022-10-30T06:50:02;95147.00;;;22.89;36.36
8280;BME280;8335;42.646;23.380;2022-10-30T06:52:29;95153.53;;;23.13;36.26
8280;BME280;8335;42.646;23.380;2022-10-30T06:54:56;95158.97;;;23.29;35.84
8280;BME280;8335;42.646;23.380;2022-10-30T06:57:24;95136.69;;;23.26;35.22
8280;BME280;8335;42.646;23.380;2022-10-30T06:59:50;95177.13;;;23.85;34.75
8280;BME280;8335;42.646;23.380;2022-10-30T07:02:17;95177.91;;;24.33;34.53
8280;BME280;8335;42.646;23.380;2022-10-30T07:04:44;95178.53;;;24.80;33.55
8280;BME280;8335;42.646;23.380;2022-10-30T07:07:12;95161.03;;;25.08;33.07
8280;BME280;8335;42.646;23.380;2022-10-30T07:09:39;95173.69;;;25.47;32.87
8280;BME280;8335;42.646;23.380;2022-10-30T07:12:06;95173.25;;;25.86;32.35
8280;BME280;8335;42.646;23.380;2022-10-30T07:14:35;95175.69;;;26.21;31.35
8280;BME280;8335;42.646;23.380;2022-10-30T07:17:01;95169.72;;;26.37;31.43
8280;BME280;8335;42.646;23.380;2022-10-30T07:19:28;95171.75;;;26.68;30.51
8280;BME280;8335;42.646;23.380;2022-10-30T07:21:55;95164.09;;;26.91;30.67
8280;BME280;8335;42.646;23.380;2022-10-30T07:24:22;95163.16;;;27.08;30.48
8280;BME280;8335;42.646;23.380;2022-10-30T07:26:49;95163.97;;;27.17;30.27
8280;BME280;8335;42.646;23.380;2022-10-30T07:29:15;95172.13;;;27.38;30.01
8280;BME280;8335;42.646;23.380;2022-10-30T07:31:46;95170.09;;;27.64;29.73
8280;BME280;8335;42.646;23.380;2022-10-30T07:34:14;95168.28;;;27.81;29.26
8280;BME280;8335;42.646;23.380;2022-10-30T07:36:40;95153.03;;;27.93;28.91
8280;BME280;8335;42.646;23.380;2022-10-30T07:39:07;95158.72;;;28.05;29.16
8280;BME280;8335;42.646;23.380;2022-10-30T07:41:34;95164.34;;;27.93;28.91
8280;BME280;8335;42.646;23.380;2022-10-30T07:44:01;95164.53;;;27.76;28.98
8280;BME280;8335;42.646;23.380;2022-10-30T07:46:28;95174.34;;;27.82;29.32
8280;BME280;8335;42.646;23.380;2022-10-30T07:48:56;95165.78;;;27.96;28.95
8280;BME280;8335;42.646;23.380;2022-10-30T07:51:22;95163.63;;;28.00;29.02
8280;BME280;8335;42.646;23.380;2022-10-30T07:53:49;95154.13;;;28.07;29.04
8280;BME280;8335;42.646;23.380;2022-10-30T07:56:16;95151.66;;;28.05;28.94
8280;BME280;8335;42.646;23.380;2022-10-30T07:58:43;95142.97;;;28.13;28.70
8280;BME280;8335;42.646;23.380;2022-10-30T08:01:10;95143.72;;;28.21;28.48
8280;BME280;8335;42.646;23.380;2022-10-30T08:03:36;95143.19;;;28.03;28.92
8280;BME280;8335;42.646;23.380;2022-10-30T08:06:05;95142.41;;;27.94;29.25
8280;BME280;8335;42.646;23.380;2022-10-30T08:08:32;95145.50;;;28.29;28.90
8280;BME280;8335;42.646;23.380;2022-10-30T08:10:58;95145.66;;;28.36;29.07
8280;BME280;8335;42.646;23.380;2022-10-30T08:13:25;95143.50;;;28.00;29.27
8280;BME280;8335;42.646;23.380;2022-10-30T08:15:52;95134.78;;;27.60;29.79
8280;BME280;8335;42.646;23.380;2022-10-30T08:18:18;95130.16;;;27.15;30.78
8280;BME280;8335;42.646;23.380;2022-10-30T08:20:47;95118.84;;;26.98;31.00
8280;BME280;8335;42.646;23.380;2022-10-30T08:23:16;95123.25;;;26.89;30.88
8280;BME280;8335;42.646;23.380;2022-10-30T08:25:44;95119.84;;;27.05;31.46
8280;BME280;8335;42.646;23.380;2022-10-30T08:28:11;95122.91;;;27.33;31.04
8280;BME280;8335;42.646;23.380;2022-10-30T08:30:39;95087.16;;;26.93;31.52
8280;BME280;8335;42.646;23.380;2022-10-30T08:33:08;95090.28;;;26.88;31.80
8280;BME280;8335;42.646;23.380;2022-10-30T08:35:35;95121.75;;;27.36;31.44
8280;BME280;8335;42.646;23.380;2022-10-30T08:38:02;95120.28;;;27.41;31.27
8280;BME280;8335;42.646;23.380;2022-10-30T08:40:30;95118.94;;;27.54;31.19
8280;BME280;8335;42.646;23.380;2022-10-30T08:42:57;95114.84;;;27.59;30.81
8280;BME280;8335;42.646;23.380;2022-10-30T08:45:24;95113.50;;;27.63;31.09
8280;BME280;8335;42.646;23.380;2022-10-30T08:47:55;95104.50;;;27.10;31.29
8280;BME280;8335;42.646;23.380;2022-10-30T08:50:22;95119.03;;;26.88;31.80
8280;BME280;8335;42.646;23.380;2022-10-30T08:52:49;95118.22;;;27.12;32.06
8280;BME280;8335;42.646;23.380;2022-10-30T08:55:16;95117.19;;;27.38;32.00
8280;BME280;8335;42.646;23.380;2022-10-30T08:57:44;95105.97;;;27.05;31.54
8280;BME280;8335;42.646;23.380;2022-10-30T09:00:11;95104.16;;;27.05;31.63
8280;BME280;8335;42.646;23.380;2022-10-30T09:02:38;95107.59;;;27.06;31.61
8280;BME280;8335;42.646;23.380;2022-10-30T09:05:06;95097.31;;;26.88;32.74
8280;BME280;8335;42.646;23.380;2022-10-30T09:07:33;95101.22;;;26.84;33.14
8280;BME280;8335;42.646;23.380;2022-10-30T09:10:00;95100.88;;;26.95;32.26
8280;BME280;8335;42.646;23.380;2022-10-30T09:12:27;95089.28;;;26.57;32.59
8280;BME280;8335;42.646;23.380;2022-10-30T09:14:55;95071.28;;;26.29;33.16
8280;BME280;8335;42.646;23.380;2022-10-30T09:17:22;95082.59;;;26.63;33.07
8280;BME280;8335;42.646;23.380;2022-10-30T09:19:49;95084.06;;;26.89;32.88
8280;BME280;8335;42.646;23.380;2022-10-30T09:22:15;95087.81;;;27.03;32.50
8280;BME280;8335;42.646;23.380;2022-10-30T09:24:42;95085.53;;;26.76;32.47
8280;BME280;8335;42.646;23.380;2022-10-30T09:27:09;95077.22;;;26.72;33.17
8280;BME280;8335;42.646;23.380;2022-10-30T09:29:36;95075.91;;;26.68;33.26
8280;BME280;8335;42.646;23.380;2022-10-30T09:32:04;95079.28;;;26.36;33.86
8280;BME280;8335;42.646;23.380;2022-10-30T09:34:34;95086.09;;;26.21;34.01
8280;BME280;8335;42.646;23.380;2022-10-30T09:37:02;95075.19;;;26.17;34.90
8280;BME280;8335;42.646;23.380;2022-10-30T09:39:28;95079.78;;;26.31;34.30
8280;BME280;8335;42.646;23.380;2022-10-30T09:42:24;95071.66;;;26.59;33.64
8280;BME280;8335;42.646;23.380;2022-10-30T09:45:09;95063.84;;;26.67;34.22
8280;BME280;8335;42.646;23.380;2022-10-30T09:47:50;95064.81;;;26.74;33.86
8280;BME280;8335;42.646;23.380;2022-10-30T09:50:24;95058.56;;;27.00;33.63
8280;BME280;8335;42.646;23.380;2022-10-30T09:53:02;95049.22;;;27.22;33.92
8280;BME280;8335;42.646;23.380;2022-10-30T09:55:35;95048.53;;;27.36;33.07
8280;BME280;8335;42.646;23.380;2022-10-30T09:58:19;95048.84;;;27.41;32.99
8280;BME280;8335;42.646;23.380;2022-10-30T10:00:52;95046.44;;;27.31;33.13
8280;BME280;8335;42.646;23.380;2022-10-30T10:03:32;95037.84;;;27.06;33.06
8280;BME280;8335;42.646;23.380;2022-10-30T10:06:05;95032.28;;;27.01;33.69
8280;BME280;8335;42.646;23.380;2022-10-30T10:08:39;95029.00;;;26.99;34.08
8280;BME280;8335;42.646;23.380;2022-10-30T10:11:11;95020.03;;;27.10;33.43
8280;BME280;8335;42.646;23.380;2022-10-30T10:13:44;95024.34;;;27.34;33.47
8280;BME280;8335;42.646;23.380;2022-10-30T10:16:16;95018.13;;;27.35;33.23
8280;BME280;8335;42.646;23.380;2022-10-30T10:18:47;95000.28;;;27.47;32.76
8280;BME280;8335;42.646;23.380;2022-10-30T10:21:24;95005.69;;;26.73;33.11
8280;BME280;8335;42.646;23.380;2022-10-30T10:23:53;94998.53;;;26.51;34.20
8280;BME280;8335;42.646;23.380;2022-10-30T10:26:29;94994.44;;;26.73;34.06
8280;BME280;8335;42.646;23.380;2022-10-30T10:29:16;94993.59;;;26.88;33.24
8280;BME280;8335;42.646;23.380;2022-10-30T10:31:57;94987.31;;;27.22;33.14
8280;BME280;8335;42.646;23.380;2022-10-30T10:34:42;94977.50;;;27.55;32.78
8280;BME280;8335;42.646;23.380;2022-10-30T10:37:16;94969.25;;;27.43;32.61
8280;BME280;8335;42.646;23.380;2022-10-30T10:40:02;94987.38;;;27.45;32.79
8280;BME280;8335;42.646;23.380;2022-10-30T10:42:44;94972.75;;;27.59;32.03
8280;BME280;8335;42.646;23.380;2022-10-30T10:45:23;94972.16;;;27.49;32.34
8280;BME280;8335;42.646;23.380;2022-10-30T10:48:11;94970.78;;;27.61;31.42
8280;BME280;8335;42.646;23.380;2022-10-30T10:50:46;94962.22;;;27.75;31.66
8280;BME280;8335;42.646;23.380;2022-10-30T10:53:18;94961.41;;;27.43;31.91
8280;BME280;8335;42.646;23.380;2022-10-30T10:55:48;94954.78;;;26.61;32.64
8280;BME280;8335;42.646;23.380;2022-10-30T10:58:24;94955.91;;;26.26;33.96
8280;BME280;8335;42.646;23.380;2022-10-30T11:00:54;94960.50;;;26.16;33.96
8280;BME280;8335;42.646;23.380;2022-10-30T11:03:24;94961.97;;;26.18;33.68
8280;BME280;8335;42.646;23.380;2022-10-30T11:05:57;94950.69;;;26.18;33.91
8280;BME280;8335;42.646;23.380;2022-10-30T11:08:27;94945.97;;;26.05;34.34
8280;BME280;8335;42.646;23.380;2022-10-30T11:10:57;94944.00;;;25.91;35.38
8280;BME280;8335;42.646;23.380;2022-10-30T11:13:27;94934.72;;;25.80;35.08
8280;BME280;8335;42.646;23.380;2022-10-30T11:15:59;94939.25;;;25.78;35.06
8280;BME280;8335;42.646;23.380;2022-10-30T11:18:30;94917.06;;;25.66;35.56
8280;BME280;8335;42.646;23.380;2022-10-30T11:21:00;94917.84;;;25.58;35.50
8280;BME280;8335;42.646;23.380;2022-10-30T11:23:35;94918.75;;;25.33;35.96
8280;BME280;8335;42.646;23.380;2022-10-30T11:28:48;94905.38;;;25.28;36.40
8280;BME280;8335;42.646;23.380;2022-10-30T11:31:20;94906.69;;;25.23;35.73
8280;BME280;8335;42.646;23.380;2022-10-30T11:33:47;94904.91;;;25.32;35.21
8280;BME280;8335;42.646;23.380;2022-10-30T11:36:18;94900.47;;;25.08;35.50
8280;BME280;8335;42.646;23.380;2022-10-30T11:38:44;94896.34;;;25.06;35.54
8280;BME280;8335;42.646;23.380;2022-10-30T11:41:12;94893.75;;;25.06;35.53
8280;BME280;8335;42.646;23.380;2022-10-30T11:43:40;94890.94;;;24.99;35.75
8280;BME280;8335;42.646;23.380;2022-10-30T11:46:10;94886.19;;;24.86;35.98
8280;BME280;8335;42.646;23.380;2022-10-30T11:48:41;94883.47;;;24.70;36.15
8280;BME280;8335;42.646;23.380;2022-10-30T11:51:10;94868.78;;;24.53;36.70
8280;BME280;8335;42.646;23.380;2022-10-30T11:53:42;94874.63;;;24.55;36.16
8280;BME280;8335;42.646;23.380;2022-10-30T11:56:14;94871.72;;;24.58;36.11
8280;BME280;8335;42.646;23.380;2022-10-30T11:58:44;94876.41;;;24.54;35.88
8280;BME280;8335;42.646;23.380;2022-10-30T12:01:18;94879.13;;;24.45;35.79
8280;BME280;8335;42.646;23.380;2022-10-30T12:03:46;94874.72;;;24.19;36.11
8280;BME280;8335;42.646;23.380;2022-10-30T12:06:17;94869.00;;;24.15;36.41
8280;BME280;8335;42.646;23.380;2022-10-30T12:09:02;94872.06;;;24.11;36.80
8280;BME280;8335;42.646;23.380;2022-10-30T12:11:31;94848.19;;;23.89;36.89
8280;BME280;8335;42.646;23.380;2022-10-30T12:13:59;94849.75;;;23.82;37.03
8280;BME280;8335;42.646;23.380;2022-10-30T12:16:26;94853.81;;;23.85;37.13
8280;BME280;8335;42.646;23.380;2022-10-30T12:18:58;94859.41;;;23.90;37.23
8280;BME280;8335;42.646;23.380;2022-10-30T12:21:26;94858.13;;;23.94;37.40
8280;BME280;8335;42.646;23.380;2022-10-30T12:23:56;94853.44;;;23.98;36.59
8280;BME280;8335;42.646;23.380;2022-10-30T12:26:27;94856.63;;;23.92;36.68
8280;BME280;8335;42.646;23.380;2022-10-30T12:28:58;94849.81;;;23.91;36.68
8280;BME280;8335;42.646;23.380;2022-10-30T12:31:31;94842.25;;;23.79;36.96
8280;BME280;8335;42.646;23.380;2022-10-30T12:34:08;94843.19;;;23.78;36.95
8280;BME280;8335;42.646;23.380;2022-10-30T12:36:42;94840.47;;;23.80;36.87
8280;BME280;8335;42.646;23.380;2022-10-30T12:39:15;94840.81;;;23.85;36.63
8280;BME280;8335;42.646;23.380;2022-10-30T12:41:49;94843.41;;;23.85;36.45
8280;BME280;8335;42.646;23.380;2022-10-30T12:44:21;94835.13;;;23.81;36.56
8280;BME280;8335;42.646;23.380;2022-10-30T12:46:53;94833.78;;;23.77;37.15
8280;BME280;8335;42.646;23.380;2022-10-30T12:49:25;94793.38;;;23.47;37.51
8280;BME280;8335;42.646;23.380;2022-10-30T12:51:59;94831.78;;;23.71;37.13
8280;BME280;8335;42.646;23.380;2022-10-30T12:54:31;94834.38;;;23.71;37.04
8280;BME280;8335;42.646;23.380;2022-10-30T12:57:07;94806.75;;;23.52;37.57
8280;BME280;8335;42.646;23.380;2022-10-30T12:59:42;94832.00;;;23.60;37.49
8280;BME280;8335;42.646;23.380;2022-10-30T13:02:20;94821.03;;;23.66;37.31
8280;BME280;8335;42.646;23.380;2022-10-30T13:04:55;94820.06;;;23.67;37.53
8280;BME280;8335;42.646;23.380;2022-10-30T13:07:25;94817.34;;;23.77;37.05
8280;BME280;8335;42.646;23.380;2022-10-30T13:10:02;94814.25;;;23.73;36.72
8280;BME280;8335;42.646;23.380;2022-10-30T13:12:35;94813.34;;;23.82;36.84
8280;BME280;8335;42.646;23.380;2022-10-30T13:15:08;94801.09;;;23.75;36.34
8280;BME280;8335;42.646;23.380;2022-10-30T13:17:37;94819.31;;;23.75;36.31
8280;BME280;8335;42.646;23.380;2022-10-30T13:20:10;94815.50;;;23.87;36.06
8280;BME280;8335;42.646;23.380;2022-10-30T13:22:43;94813.44;;;23.99;35.68
8280;BME280;8335;42.646;23.380;2022-10-30T13:25:18;94811.66;;;23.99;35.95
8280;BME280;8335;42.646;23.380;2022-10-30T13:27:51;94781.22;;;23.92;35.73
8280;BME280;8335;42.646;23.380;2022-10-30T13:30:22;94816.66;;;24.19;35.70